Beddau, United Kingdom
Current Conditions -  °F | °C
As of 5:20 AM on Tuesday 21 Oct 2014 (Local Time) from EGFF Reporting Station
Broken Clouds Broken Clouds  
Wind Chill: 57°   Ceiling: 1200
Heat Index: 57°   Visibility: 6mi
Dew Point: 55°   Wind: 26mph
Humidity: 94%   Direction: 260°W
Pressure: 29.59"   Gusts: 40mph
Location:  51.55°N, 3.36°W
Report Text: EGFF 210420Z AUTO 26023G35KT 9999 SCT002/// BKN012/// //////CB 14/13 Q1002 RERA
Loading
Personal Weather Stations






























Interactive Weather Map New forecast layout! Learn more

10-Day Weather Forecast

Advertisements
Track Severe Weather on mobile